createdAt,value
2022-12-15T00:00:55.006Z,47.76
2022-12-15T00:01:54.981Z,48.10
2022-12-15T00:02:55.091Z,48.75
2022-12-15T00:03:54.948Z,48.13
2022-12-15T00:04:54.921Z,47.84
2022-12-15T00:05:54.880Z,48.54
2022-12-15T00:06:54.931Z,48.55
2022-12-15T00:07:54.887Z,48.07
2022-12-15T00:08:54.914Z,48.02
2022-12-15T00:09:54.936Z,48.24
2022-12-15T00:10:54.940Z,48.66
2022-12-15T00:11:54.901Z,48.53
2022-12-15T00:12:54.851Z,48.41
2022-12-15T00:13:54.872Z,48.54
2022-12-15T00:14:54.842Z,48.53
2022-12-15T00:15:54.926Z,48.53
2022-12-15T00:16:54.803Z,48.56
2022-12-15T00:17:54.811Z,48.56
2022-12-15T00:18:54.815Z,48.46
2022-12-15T00:19:54.800Z,48.43
2022-12-15T00:20:54.823Z,49.98
2022-12-15T00:21:54.827Z,49.61
2022-12-15T00:22:54.803Z,48.35
2022-12-15T00:23:54.782Z,48.63
2022-12-15T00:24:54.788Z,48.73
2022-12-15T00:25:54.797Z,48.37
2022-12-15T00:26:54.814Z,48.47
2022-12-15T00:27:54.856Z,48.88
2022-12-15T00:28:54.813Z,48.60
2022-12-15T00:29:54.793Z,48.48
2022-12-15T00:31:00.450Z,48.91
2022-12-15T00:31:56.827Z,52.88
2022-12-15T00:32:54.735Z,49.08
2022-12-15T00:33:54.739Z,48.31
2022-12-15T00:34:54.731Z,48.56
2022-12-15T00:35:54.718Z,47.91
2022-12-15T00:36:54.717Z,47.77
2022-12-15T00:37:54.717Z,47.89
2022-12-15T00:38:58.066Z,47.85
2022-12-15T00:39:55.665Z,47.96
2022-12-15T00:40:54.660Z,48.08
2022-12-15T00:41:54.667Z,48.20
2022-12-15T00:42:54.676Z,50.09
2022-12-15T00:43:54.683Z,51.92
2022-12-15T00:44:54.713Z,53.00
2022-12-15T00:45:54.701Z,50.37
2022-12-15T00:46:54.861Z,49.83
2022-12-15T00:47:54.661Z,48.68
2022-12-15T00:48:54.710Z,50.85
2022-12-15T00:49:54.877Z,49.41
2022-12-15T00:50:54.681Z,48.22
2022-12-15T00:51:54.701Z,48.03
2022-12-15T00:52:54.681Z,48.57
2022-12-15T00:53:54.645Z,47.88
2022-12-15T00:54:54.676Z,54.53
2022-12-15T00:55:54.567Z,50.32
2022-12-15T00:56:54.661Z,53.12
2022-12-15T00:57:54.580Z,48.74
2022-12-15T00:58:54.853Z,49.75
2022-12-15T00:59:54.572Z,49.86
2022-12-15T01:00:55.532Z,49.66
2022-12-15T01:01:54.625Z,48.43
2022-12-15T01:02:54.756Z,49.16
2022-12-15T01:03:54.761Z,48.35
2022-12-15T01:04:54.564Z,48.42
2022-12-15T01:05:54.494Z,49.01
2022-12-15T01:06:54.583Z,48.56
2022-12-15T01:07:54.518Z,49.16
2022-12-15T01:08:54.492Z,49.88
2022-12-15T01:09:54.490Z,51.09
2022-12-15T01:10:54.516Z,51.16
2022-12-15T01:11:54.489Z,49.41
2022-12-15T01:12:54.466Z,48.73
2022-12-15T01:13:54.505Z,49.71
2022-12-15T01:14:54.451Z,49.06
2022-12-15T01:15:54.510Z,48.64
2022-12-15T01:16:54.439Z,49.69
2022-12-15T01:17:54.481Z,48.53
2022-12-15T01:18:54.426Z,48.53
2022-12-15T01:19:54.434Z,49.15
2022-12-15T01:20:54.450Z,48.98
2022-12-15T01:21:54.434Z,48.19
2022-12-15T01:22:54.424Z,48.83
2022-12-15T01:23:54.416Z,48.22
2022-12-15T01:24:54.397Z,49.41
2022-12-15T01:25:54.420Z,48.34
2022-12-15T01:26:54.370Z,48.98
2022-12-15T01:27:54.378Z,49.44
2022-12-15T01:28:54.416Z,48.25
2022-12-15T01:29:54.380Z,48.05
2022-12-15T01:30:54.360Z,48.90
2022-12-15T01:31:54.411Z,49.39
2022-12-15T01:32:54.365Z,48.89
2022-12-15T01:33:54.347Z,48.35
2022-12-15T01:34:54.318Z,48.23
2022-12-15T01:35:54.317Z,48.88
2022-12-15T01:36:54.326Z,48.83
2022-12-15T01:37:54.337Z,48.45
2022-12-15T01:38:54.737Z,49.25
2022-12-15T01:39:55.292Z,49.13
2022-12-15T01:40:54.286Z,48.56
2022-12-15T01:41:54.301Z,48.46
2022-12-15T01:42:54.269Z,48.46
2022-12-15T01:43:54.315Z,48.52
2022-12-15T01:44:54.299Z,48.44
2022-12-15T01:45:54.266Z,48.72
2022-12-15T01:46:54.306Z,48.45
2022-12-15T01:47:54.301Z,48.35
2022-12-15T01:48:54.219Z,48.20
2022-12-15T01:49:54.270Z,48.21
2022-12-15T01:50:54.198Z,48.24
2022-12-15T01:51:54.229Z,48.36
2022-12-15T01:52:54.231Z,48.47
2022-12-15T01:53:54.221Z,48.80
2022-12-15T01:54:54.256Z,49.11
2022-12-15T01:55:54.211Z,49.01
2022-12-15T01:56:54.252Z,48.73
2022-12-15T01:57:54.163Z,48.98
2022-12-15T01:58:54.215Z,53.76
2022-12-15T01:59:54.155Z,51.45
2022-12-15T02:00:54.202Z,49.83
2022-12-15T02:01:54.264Z,49.76
2022-12-15T02:02:54.296Z,48.17
2022-12-15T02:03:54.141Z,54.04
2022-12-15T02:04:54.117Z,51.35
2022-12-15T02:05:54.128Z,52.19
2022-12-15T02:06:54.165Z,50.07
2022-12-15T02:07:54.146Z,48.78
2022-12-15T02:08:54.103Z,49.13
2022-12-15T02:09:54.078Z,48.49
2022-12-15T02:10:54.098Z,48.74
2022-12-15T02:11:54.119Z,50.25
2022-12-15T02:12:54.160Z,48.92
2022-12-15T02:13:55.154Z,50.88
2022-12-15T02:14:54.443Z,51.54
2022-12-15T02:15:54.106Z,50.98
2022-12-15T02:16:54.049Z,49.01
2022-12-15T02:17:54.312Z,48.53
2022-12-15T02:18:54.026Z,53.14
2022-12-15T02:19:54.916Z,54.73
2022-12-15T02:20:55.019Z,49.33
2022-12-15T02:21:54.100Z,50.11
2022-12-15T02:22:54.010Z,50.02
2022-12-15T02:23:54.073Z,50.77
2022-12-15T02:24:54.095Z,49.30
2022-12-15T02:25:54.263Z,50.30
2022-12-15T02:26:53.983Z,48.08
2022-12-15T02:27:54.619Z,49.53
2022-12-15T02:28:53.954Z,48.36
2022-12-15T02:29:54.242Z,48.63
2022-12-15T02:30:53.925Z,49.34
2022-12-15T02:31:54.211Z,48.72
2022-12-15T02:32:54.003Z,50.27
2022-12-15T02:33:54.106Z,48.82
2022-12-15T02:34:53.940Z,51.14
2022-12-15T02:35:54.003Z,50.17
2022-12-15T02:36:54.179Z,49.67
2022-12-15T02:37:53.903Z,50.04
2022-12-15T02:38:54.202Z,48.73
2022-12-15T02:39:54.279Z,49.38
2022-12-15T02:40:53.931Z,49.05
2022-12-15T02:41:54.375Z,47.90
2022-12-15T02:42:53.868Z,49.27
2022-12-15T02:43:54.024Z,50.57
2022-12-15T02:44:54.096Z,48.65
2022-12-15T02:45:54.124Z,49.80
2022-12-15T02:46:53.839Z,50.01
2022-12-15T02:47:54.232Z,49.35
2022-12-15T02:48:53.829Z,52.05
2022-12-15T02:49:54.327Z,50.73
2022-12-15T02:50:53.798Z,51.86
2022-12-15T02:51:54.021Z,53.54
2022-12-15T02:52:53.829Z,50.75
2022-12-15T02:53:54.074Z,48.72
2022-12-15T02:54:53.835Z,48.77
2022-12-15T02:55:53.779Z,48.29
2022-12-15T02:56:53.771Z,48.33
2022-12-15T02:57:53.864Z,51.49
2022-12-15T02:58:53.774Z,47.82
2022-12-15T02:59:53.774Z,48.64
2022-12-15T03:00:53.823Z,49.59
2022-12-15T03:01:53.926Z,49.52
2022-12-15T03:02:53.914Z,49.02
2022-12-15T03:03:53.731Z,49.69
2022-12-15T03:04:53.742Z,48.74
2022-12-15T03:05:53.738Z,48.57
2022-12-15T03:06:59.020Z,48.58
2022-12-15T03:07:55.694Z,49.14
2022-12-15T03:08:53.685Z,50.24
2022-12-15T03:09:53.667Z,48.91
2022-12-15T03:10:53.712Z,51.01
2022-12-15T03:11:53.709Z,50.18
2022-12-15T03:12:53.874Z,48.74
2022-12-15T03:13:53.644Z,48.91
2022-12-15T03:14:53.649Z,52.91
2022-12-15T03:15:53.663Z,51.77
2022-12-15T03:16:53.729Z,52.93
2022-12-15T03:17:53.660Z,49.57
2022-12-15T03:18:53.625Z,49.54
2022-12-15T03:19:53.618Z,50.52
2022-12-15T03:20:53.664Z,53.31
2022-12-15T03:21:53.589Z,52.17
2022-12-15T03:22:53.640Z,48.88
2022-12-15T03:23:53.602Z,48.50
2022-12-15T03:24:53.627Z,50.06
2022-12-15T03:25:53.596Z,49.49
2022-12-15T03:26:53.573Z,49.88
2022-12-15T03:27:53.587Z,50.05
2022-12-15T03:28:53.580Z,49.51
2022-12-15T03:29:53.583Z,52.80
2022-12-15T03:30:53.560Z,53.22
2022-12-15T03:31:53.585Z,49.95
2022-12-15T03:32:53.505Z,48.92
2022-12-15T03:33:53.553Z,51.81
2022-12-15T03:34:53.507Z,50.83
2022-12-15T03:35:53.570Z,53.88
2022-12-15T03:36:53.493Z,50.57
2022-12-15T03:37:53.486Z,50.77
2022-12-15T03:38:53.482Z,51.06
2022-12-15T03:39:53.545Z,48.84
2022-12-15T03:40:53.486Z,50.41
2022-12-15T03:41:53.483Z,50.83
2022-12-15T03:42:53.460Z,49.78
2022-12-15T03:43:53.469Z,48.90
2022-12-15T03:44:53.502Z,53.35
2022-12-15T03:45:53.544Z,51.60
2022-12-15T03:46:54.590Z,49.60
2022-12-15T03:47:53.468Z,49.90
2022-12-15T03:48:53.425Z,49.82
2022-12-15T03:49:53.427Z,48.86
2022-12-15T03:50:53.434Z,51.96
2022-12-15T03:51:53.455Z,55.54
2022-12-15T03:52:53.452Z,50.13
2022-12-15T03:53:53.413Z,49.96
2022-12-15T03:54:53.394Z,49.66
2022-12-15T03:55:53.392Z,48.61
2022-12-15T03:56:53.382Z,50.08
2022-12-15T03:57:53.373Z,50.33
2022-12-15T03:58:53.414Z,50.76
2022-12-15T03:59:53.360Z,49.66
2022-12-15T04:00:53.414Z,50.60
2022-12-15T04:01:53.532Z,50.31
2022-12-15T04:02:53.520Z,50.46
2022-12-15T04:04:00.041Z,51.92
2022-12-15T04:04:55.353Z,49.57
2022-12-15T04:05:53.328Z,51.26
2022-12-15T04:06:53.313Z,51.58
2022-12-15T04:07:53.372Z,49.29
2022-12-15T04:08:53.298Z,49.95
2022-12-15T04:09:53.341Z,53.26
2022-12-15T04:10:53.300Z,51.56
2022-12-15T04:11:53.303Z,52.90
2022-12-15T04:12:53.307Z,51.42
2022-12-15T04:13:53.263Z,49.53
2022-12-15T04:14:53.255Z,49.83
2022-12-15T04:15:53.281Z,50.79
2022-12-15T04:16:53.340Z,52.04
2022-12-15T04:17:53.250Z,51.14
2022-12-15T04:18:53.251Z,51.77
2022-12-15T04:19:53.245Z,50.77
2022-12-15T04:20:53.283Z,50.63
2022-12-15T04:21:53.253Z,55.52
2022-12-15T04:22:53.237Z,51.44
2022-12-15T04:23:53.203Z,52.05
2022-12-15T04:24:53.209Z,51.80
2022-12-15T04:25:53.212Z,51.94
2022-12-15T04:26:53.193Z,50.68
2022-12-15T04:27:55.924Z,50.17
2022-12-15T04:28:55.175Z,52.04
2022-12-15T04:29:53.187Z,52.14
2022-12-15T04:30:53.191Z,51.97
2022-12-15T04:31:53.181Z,50.21
2022-12-15T04:32:53.150Z,55.52
2022-12-15T04:33:53.153Z,61.09
2022-12-15T04:34:53.121Z,60.85
2022-12-15T04:35:53.123Z,59.59
2022-12-15T04:36:53.149Z,59.64
2022-12-15T04:37:53.147Z,59.25
2022-12-15T04:38:53.112Z,59.32
2022-12-15T04:39:53.126Z,59.47
2022-12-15T04:40:53.106Z,59.61
2022-12-15T04:41:53.118Z,59.40
2022-12-15T04:42:53.086Z,54.09
2022-12-15T04:43:53.088Z,53.50
2022-12-15T04:44:53.055Z,52.39
2022-12-15T04:45:53.101Z,52.09
2022-12-15T04:46:53.060Z,50.07
2022-12-15T04:47:53.060Z,52.70
2022-12-15T04:48:53.049Z,50.77
2022-12-15T04:49:53.031Z,49.83
2022-12-15T04:50:53.033Z,49.41
2022-12-15T04:51:53.032Z,50.67
2022-12-15T04:52:53.006Z,49.39
2022-12-15T04:53:53.007Z,51.73
2022-12-15T04:54:52.993Z,52.68
2022-12-15T04:55:52.971Z,50.13
2022-12-15T04:56:52.971Z,49.51
2022-12-15T04:57:52.966Z,49.31
2022-12-15T04:58:52.994Z,51.36
2022-12-15T04:59:52.980Z,52.86
2022-12-15T05:00:52.973Z,54.26
2022-12-15T05:01:53.046Z,53.13
2022-12-15T05:02:52.972Z,51.99
2022-12-15T05:03:53.015Z,52.57
2022-12-15T05:04:52.974Z,53.50
2022-12-15T05:05:52.921Z,53.77
2022-12-15T05:06:52.960Z,54.17
2022-12-15T05:07:52.925Z,56.15
2022-12-15T05:08:52.900Z,56.60
2022-12-15T05:09:52.961Z,54.93
2022-12-15T05:10:52.896Z,54.44
2022-12-15T05:11:52.923Z,52.48
2022-12-15T05:12:52.867Z,53.60
2022-12-15T05:13:52.861Z,54.13
2022-12-15T05:14:52.889Z,52.46
2022-12-15T05:15:52.933Z,52.18
2022-12-15T05:16:52.933Z,52.93
2022-12-15T05:17:52.864Z,53.26
2022-12-15T05:18:52.831Z,54.33
2022-12-15T05:19:52.838Z,54.36
2022-12-15T05:20:52.870Z,53.48
2022-12-15T05:21:52.833Z,52.78
2022-12-15T05:22:52.814Z,53.75
2022-12-15T05:23:52.824Z,53.36
2022-12-15T05:24:52.812Z,50.86
2022-12-15T05:25:52.842Z,52.43
2022-12-15T05:26:53.480Z,56.49
2022-12-15T05:27:53.792Z,57.95
2022-12-15T05:28:52.786Z,58.79
2022-12-15T05:29:52.849Z,53.49
2022-12-15T05:30:52.814Z,53.34
2022-12-15T05:31:52.794Z,54.58
2022-12-15T05:32:52.771Z,53.15
2022-12-15T05:33:52.760Z,50.87
2022-12-15T05:34:52.770Z,52.95
2022-12-15T05:35:52.764Z,53.93
2022-12-15T05:36:52.734Z,57.40
2022-12-15T05:37:52.760Z,49.59
2022-12-15T05:38:52.895Z,52.02
2022-12-15T05:39:52.741Z,54.78
2022-12-15T05:40:52.741Z,55.01
2022-12-15T05:41:52.707Z,54.08
2022-12-15T05:42:53.719Z,56.34
2022-12-15T05:43:52.729Z,51.92
2022-12-15T05:44:53.711Z,54.80
2022-12-15T05:45:52.742Z,56.17
2022-12-15T05:46:52.702Z,53.89
2022-12-15T05:47:52.660Z,52.94
2022-12-15T05:48:52.663Z,53.36
2022-12-15T05:49:52.654Z,54.63
2022-12-15T05:50:52.686Z,53.82
2022-12-15T05:51:52.691Z,55.21
2022-12-15T05:52:52.643Z,53.15
2022-12-15T05:53:52.626Z,53.03
2022-12-15T05:54:52.663Z,54.22
2022-12-15T05:55:52.630Z,55.03
2022-12-15T05:56:52.598Z,55.32
2022-12-15T05:57:52.625Z,52.67
2022-12-15T05:58:52.602Z,53.28
2022-12-15T05:59:52.629Z,53.30
2022-12-15T06:00:52.624Z,55.84
2022-12-15T06:01:52.642Z,58.61
2022-12-15T06:02:52.648Z,58.29
2022-12-15T06:03:52.562Z,59.49
2022-12-15T06:04:52.657Z,56.47
2022-12-15T06:05:56.408Z,52.31
2022-12-15T06:06:53.560Z,54.93
2022-12-15T06:07:52.586Z,54.18
2022-12-15T06:08:52.567Z,55.26
2022-12-15T06:09:52.554Z,51.33
2022-12-15T06:10:52.594Z,54.48
2022-12-15T06:11:52.541Z,53.39
2022-12-15T06:12:52.532Z,51.73
2022-12-15T06:13:52.508Z,54.35
2022-12-15T06:14:52.512Z,55.04
2022-12-15T06:15:52.545Z,54.64
2022-12-15T06:16:52.555Z,53.88
2022-12-15T06:17:52.515Z,53.44
2022-12-15T06:18:52.502Z,53.76
2022-12-15T06:19:52.477Z,52.91
2022-12-15T06:20:52.466Z,53.76
2022-12-15T06:21:53.524Z,52.75
2022-12-15T06:22:52.434Z,54.49
2022-12-15T06:23:52.488Z,55.26
2022-12-15T06:24:52.449Z,54.57
2022-12-15T06:25:52.453Z,54.61
2022-12-15T06:26:52.432Z,55.95
2022-12-15T06:27:55.789Z,55.14
2022-12-15T06:28:53.431Z,55.60
2022-12-15T06:29:52.426Z,57.77
2022-12-15T06:30:52.457Z,55.49
2022-12-15T06:31:52.471Z,56.18
2022-12-15T06:32:52.448Z,57.59
2022-12-15T06:33:57.529Z,54.40
2022-12-15T06:34:54.377Z,54.22
2022-12-15T06:35:52.382Z,57.69
2022-12-15T06:36:52.449Z,57.28
2022-12-15T06:37:52.413Z,56.99
2022-12-15T06:38:52.353Z,54.59
2022-12-15T06:39:52.416Z,54.13
2022-12-15T06:40:52.343Z,55.48
2022-12-15T06:41:52.325Z,57.72
2022-12-15T06:42:52.339Z,55.90
2022-12-15T06:43:52.322Z,55.57
2022-12-15T06:44:52.512Z,53.28
2022-12-15T06:45:52.321Z,54.78
2022-12-15T06:46:52.371Z,55.56
2022-12-15T06:47:56.520Z,53.18
2022-12-15T06:48:53.346Z,56.41
2022-12-15T06:49:52.344Z,56.02
2022-12-15T06:50:52.299Z,53.39
2022-12-15T06:51:52.284Z,54.01
2022-12-15T06:52:52.249Z,55.12
2022-12-15T06:53:52.268Z,54.26
2022-12-15T06:54:52.299Z,53.58
2022-12-15T06:55:52.269Z,56.32
2022-12-15T06:56:52.436Z,55.61
2022-12-15T06:57:52.232Z,55.23
2022-12-15T06:58:52.235Z,52.38
2022-12-15T06:59:52.285Z,53.71
2022-12-15T07:00:52.345Z,55.70
2022-12-15T07:01:52.375Z,55.10
2022-12-15T07:02:52.347Z,54.80
2022-12-15T07:03:52.503Z,57.04
2022-12-15T07:04:52.200Z,54.69
2022-12-15T07:05:52.227Z,54.98
2022-12-15T07:06:52.211Z,56.74
2022-12-15T07:07:52.182Z,56.81
2022-12-15T07:08:52.162Z,54.96
2022-12-15T07:09:52.173Z,54.25
2022-12-15T07:10:52.174Z,56.17
2022-12-15T07:11:52.183Z,53.47
2022-12-15T07:12:52.150Z,55.37
2022-12-15T07:13:52.188Z,55.27
2022-12-15T07:14:53.697Z,55.12
2022-12-15T07:15:53.158Z,55.20
2022-12-15T07:16:52.140Z,52.52
2022-12-15T07:17:52.128Z,54.75
2022-12-15T07:18:52.117Z,54.34
2022-12-15T07:19:52.117Z,54.77
2022-12-15T07:20:52.092Z,53.93
2022-12-15T07:21:52.185Z,54.73
2022-12-15T07:22:52.180Z,55.05
2022-12-15T07:23:55.421Z,56.47
2022-12-15T07:24:53.077Z,57.72
2022-12-15T07:25:52.055Z,56.54
2022-12-15T07:26:52.188Z,52.03
2022-12-15T07:27:52.087Z,52.78
2022-12-15T07:28:52.050Z,53.95
2022-12-15T07:29:52.043Z,52.44
2022-12-15T07:30:52.123Z,55.35
2022-12-15T07:31:52.128Z,54.44
2022-12-15T07:32:53.137Z,54.54
2022-12-15T07:33:52.124Z,51.13
2022-12-15T07:34:52.012Z,51.57
2022-12-15T07:35:52.037Z,52.28
2022-12-15T07:36:52.847Z,54.47
2022-12-15T07:37:53.007Z,54.91
2022-12-15T07:38:52.172Z,54.74
2022-12-15T07:39:52.013Z,53.64
2022-12-15T07:40:52.127Z,54.20
2022-12-15T07:41:51.990Z,52.66
2022-12-15T07:42:51.977Z,54.18
2022-12-15T07:43:51.954Z,53.79
2022-12-15T07:44:51.985Z,54.92
2022-12-15T07:45:52.076Z,53.57
2022-12-15T07:46:51.969Z,52.33
2022-12-15T07:47:51.950Z,53.44
2022-12-15T07:48:51.923Z,51.74
2022-12-15T07:49:51.923Z,52.97
2022-12-15T07:50:51.933Z,52.71
2022-12-15T07:51:51.923Z,51.62
2022-12-15T07:52:51.904Z,51.72
2022-12-15T07:53:51.890Z,57.79
2022-12-15T07:54:51.869Z,53.35
2022-12-15T07:56:07.066Z,53.59
2022-12-15T07:56:53.894Z,52.15
2022-12-15T07:57:51.878Z,54.06
2022-12-15T07:58:51.880Z,52.24
2022-12-15T07:59:51.849Z,53.36
2022-12-15T08:00:51.876Z,56.16
2022-12-15T08:01:52.079Z,55.48
2022-12-15T08:02:52.002Z,54.79
2022-12-15T08:03:51.940Z,54.99
2022-12-15T08:04:52.806Z,55.05
2022-12-15T08:05:51.901Z,52.16
2022-12-15T08:06:51.840Z,50.67
2022-12-15T08:07:51.826Z,50.72
2022-12-15T08:08:51.784Z,52.50
2022-12-15T08:09:51.772Z,55.33
2022-12-15T08:10:51.819Z,56.60
2022-12-15T08:11:51.806Z,51.04
2022-12-15T08:12:51.799Z,52.46
2022-12-15T08:14:11.973Z,52.88
2022-12-15T08:14:53.762Z,54.61
2022-12-15T08:15:51.742Z,56.13
2022-12-15T08:16:51.800Z,50.45
2022-12-15T08:17:51.780Z,52.87
2022-12-15T08:18:51.726Z,55.12
2022-12-15T08:19:55.688Z,55.47
2022-12-15T08:20:52.715Z,54.57
2022-12-15T08:21:51.719Z,54.08
2022-12-15T08:22:51.688Z,55.26
2022-12-15T08:23:51.684Z,51.98
2022-12-15T08:24:51.682Z,53.21
2022-12-15T08:25:51.677Z,56.77
2022-12-15T08:26:51.687Z,56.86
2022-12-15T08:27:51.694Z,55.34
2022-12-15T08:28:51.692Z,56.72
2022-12-15T08:29:52.564Z,54.95
2022-12-15T08:30:52.647Z,56.89
2022-12-15T08:31:51.779Z,53.48
2022-12-15T08:32:52.231Z,53.05
2022-12-15T08:33:52.614Z,55.56
2022-12-15T08:34:51.666Z,56.50
2022-12-15T08:35:57.220Z,55.56
2022-12-15T08:36:53.653Z,52.16
2022-12-15T08:37:51.649Z,53.70
2022-12-15T08:38:51.593Z,53.18
2022-12-15T08:39:51.628Z,53.53
2022-12-15T08:40:51.579Z,54.58
2022-12-15T08:41:52.612Z,52.47
2022-12-15T08:42:51.623Z,54.49
2022-12-15T08:43:51.567Z,54.85
2022-12-15T08:44:51.587Z,51.41
2022-12-15T08:45:51.712Z,53.93
2022-12-15T08:46:51.574Z,54.61
2022-12-15T08:47:51.571Z,54.86
2022-12-15T08:48:51.550Z,55.33
2022-12-15T08:49:51.583Z,54.46
2022-12-15T08:50:51.522Z,57.80
2022-12-15T08:51:51.562Z,55.87
2022-12-15T08:53:21.344Z,53.77
2022-12-15T08:53:53.518Z,55.62
2022-12-15T08:54:51.548Z,55.13
2022-12-15T08:55:51.508Z,56.96
2022-12-15T08:56:51.485Z,55.27
2022-12-15T08:57:51.494Z,52.63
2022-12-15T08:58:51.474Z,55.01
2022-12-15T08:59:51.574Z,56.28
2022-12-15T09:00:51.508Z,54.55
2022-12-15T09:01:51.718Z,54.78
2022-12-15T09:02:51.518Z,54.86
2022-12-15T09:03:51.570Z,51.11
2022-12-15T09:04:51.526Z,50.98
2022-12-15T09:05:51.416Z,52.98
2022-12-15T09:06:51.447Z,53.47
2022-12-15T09:07:51.430Z,53.19
2022-12-15T09:08:51.513Z,54.82
2022-12-15T09:09:51.462Z,54.83
2022-12-15T09:10:52.487Z,54.37
2022-12-15T09:11:51.389Z,56.40
2022-12-15T09:12:51.469Z,53.34
2022-12-15T09:13:51.415Z,53.70
2022-12-15T09:14:51.372Z,51.17
2022-12-15T09:16:53.446Z,53.10
2022-12-15T09:17:51.373Z,51.97
2022-12-15T09:18:51.362Z,53.25
2022-12-15T09:19:51.365Z,54.10
2022-12-15T09:20:51.395Z,55.12
2022-12-15T09:21:51.376Z,56.68
2022-12-15T09:22:51.359Z,56.50
2022-12-15T09:23:51.327Z,52.98
2022-12-15T09:24:51.341Z,51.08
2022-12-15T09:25:51.310Z,53.40
2022-12-15T09:26:51.446Z,53.91
2022-12-15T09:27:51.319Z,52.16
2022-12-15T09:28:51.395Z,51.63
2022-12-15T09:29:51.295Z,51.69
2022-12-15T09:30:51.298Z,53.88
2022-12-15T09:31:51.279Z,53.36
2022-12-15T09:32:51.317Z,54.94
2022-12-15T09:33:51.290Z,53.42
2022-12-15T09:34:51.593Z,52.68
2022-12-15T09:35:51.260Z,50.02
2022-12-15T09:36:51.280Z,49.29
2022-12-15T09:37:51.954Z,51.84
2022-12-15T09:38:52.227Z,50.15
2022-12-15T09:39:51.244Z,54.43
2022-12-15T09:40:51.258Z,53.08
2022-12-15T09:41:51.242Z,50.93
2022-12-15T09:43:05.045Z,50.57
2022-12-15T09:43:53.643Z,52.21
2022-12-15T09:44:51.244Z,52.34
2022-12-15T09:45:51.261Z,52.26
2022-12-15T09:46:51.233Z,52.96
2022-12-15T09:47:51.209Z,50.06
2022-12-15T09:48:51.258Z,52.74
2022-12-15T09:49:51.190Z,50.68
2022-12-15T09:50:51.221Z,52.81
2022-12-15T09:51:51.177Z,52.86
2022-12-15T09:52:51.213Z,51.74
2022-12-15T09:53:55.935Z,54.59
2022-12-15T09:54:53.266Z,52.38
2022-12-15T09:55:51.189Z,55.43
2022-12-15T09:56:51.170Z,53.58
2022-12-15T09:57:51.211Z,51.17
2022-12-15T09:58:51.152Z,51.30
2022-12-15T09:59:51.305Z,53.82
2022-12-15T10:00:52.645Z,54.14
2022-12-15T10:01:52.156Z,57.77
2022-12-15T10:02:51.174Z,59.54
2022-12-15T10:03:51.169Z,59.40
2022-12-15T10:04:51.084Z,55.04
2022-12-15T10:06:14.729Z,55.96
2022-12-15T10:06:53.085Z,54.16
2022-12-15T10:07:51.108Z,52.09
2022-12-15T10:08:51.061Z,53.63
2022-12-15T10:09:51.109Z,52.32
2022-12-15T10:10:51.091Z,51.93
2022-12-15T10:11:51.202Z,53.01
2022-12-15T10:13:53.036Z,51.95
2022-12-15T10:14:51.037Z,51.31
2022-12-15T10:15:51.062Z,52.12
2022-12-15T10:16:51.049Z,55.41
2022-12-15T10:17:51.020Z,52.96
2022-12-15T10:18:53.622Z,53.02
2022-12-15T10:19:52.113Z,55.10
2022-12-15T10:20:50.998Z,53.12
2022-12-15T10:21:51.029Z,53.34
2022-12-15T10:22:51.017Z,52.42
2022-12-15T10:23:51.042Z,54.03
2022-12-15T10:25:52.956Z,52.27
2022-12-15T10:26:50.982Z,50.73
2022-12-15T10:27:50.948Z,52.10
2022-12-15T10:28:51.320Z,52.63
2022-12-15T10:29:51.237Z,54.28
2022-12-15T10:30:50.999Z,49.57
2022-12-15T10:31:50.943Z,52.27
2022-12-15T10:32:51.292Z,54.62
2022-12-15T10:33:51.922Z,52.38
2022-12-15T10:34:50.948Z,53.38
2022-12-15T10:35:50.923Z,51.15
2022-12-15T10:36:50.896Z,54.65
2022-12-15T10:37:50.963Z,53.33
2022-12-15T10:38:50.951Z,53.45
2022-12-15T10:39:50.884Z,52.30
2022-12-15T10:40:51.165Z,54.33
2022-12-15T10:41:50.963Z,55.27
2022-12-15T10:42:50.918Z,52.19
2022-12-15T10:43:50.891Z,54.89
2022-12-15T10:44:51.847Z,51.80
2022-12-15T10:45:50.934Z,55.13
2022-12-15T10:46:50.927Z,55.27
2022-12-15T10:47:50.839Z,54.65
2022-12-15T10:48:51.589Z,55.00
2022-12-15T10:49:50.865Z,54.31
2022-12-15T10:50:50.833Z,55.32
2022-12-15T10:51:50.812Z,52.63
2022-12-15T10:52:50.816Z,53.51
2022-12-15T10:53:50.996Z,54.12
2022-12-15T10:54:50.827Z,54.08
2022-12-15T10:55:50.786Z,53.35
2022-12-15T10:56:50.778Z,56.85
2022-12-15T10:57:50.795Z,51.39
2022-12-15T10:58:50.774Z,53.83
2022-12-15T10:59:50.795Z,53.21
2022-12-15T11:00:51.159Z,56.27
2022-12-15T11:01:51.097Z,54.72
2022-12-15T11:02:50.852Z,53.32
2022-12-15T11:03:50.934Z,53.53
2022-12-15T11:04:50.765Z,52.25
2022-12-15T11:05:50.724Z,52.46
2022-12-15T11:06:50.722Z,53.31
2022-12-15T11:07:50.810Z,52.00
2022-12-15T11:08:50.831Z,51.73
2022-12-15T11:09:50.990Z,50.60
2022-12-15T11:10:50.701Z,55.13
2022-12-15T11:11:50.732Z,50.33
2022-12-15T11:12:50.830Z,50.21
2022-12-15T11:13:50.791Z,51.80
2022-12-15T11:14:51.224Z,54.80
2022-12-15T11:15:51.121Z,54.72
2022-12-15T11:16:50.673Z,54.05
2022-12-15T11:17:50.686Z,51.10
2022-12-15T11:18:50.659Z,53.78
2022-12-15T11:19:52.222Z,54.83
2022-12-15T11:20:50.668Z,55.49
2022-12-15T11:21:50.670Z,53.74
2022-12-15T11:22:50.625Z,55.70
2022-12-15T11:23:50.644Z,55.83
2022-12-15T11:24:50.629Z,56.57
2022-12-15T11:25:50.620Z,57.39
2022-12-15T11:26:50.647Z,55.75
2022-12-15T11:27:50.628Z,58.70
2022-12-15T11:28:50.591Z,50.77
2022-12-15T11:29:50.579Z,52.41
2022-12-15T11:30:50.600Z,51.99
2022-12-15T11:31:50.592Z,52.48
2022-12-15T11:32:50.606Z,56.67
2022-12-15T11:33:50.587Z,54.27
2022-12-15T11:34:50.570Z,56.76
2022-12-15T11:35:50.609Z,54.31
2022-12-15T11:36:50.593Z,56.21
2022-12-15T11:37:50.610Z,52.82
2022-12-15T11:38:50.895Z,56.61
2022-12-15T11:39:50.537Z,53.63
2022-12-15T11:40:50.671Z,51.76
2022-12-15T11:41:50.563Z,54.27
2022-12-15T11:42:50.534Z,51.83
2022-12-15T11:43:50.618Z,52.42
2022-12-15T11:44:50.514Z,55.40
2022-12-15T11:45:50.514Z,54.44
2022-12-15T11:46:50.533Z,57.37
2022-12-15T11:47:50.969Z,52.68
2022-12-15T11:48:50.720Z,54.83
2022-12-15T11:49:50.530Z,55.15
2022-12-15T11:50:51.073Z,55.12
2022-12-15T11:51:50.470Z,52.32
2022-12-15T11:52:50.487Z,53.75
2022-12-15T11:53:50.510Z,54.05
2022-12-15T11:54:50.456Z,52.99
2022-12-15T11:55:50.441Z,51.90
2022-12-15T11:56:50.426Z,49.80
2022-12-15T11:57:50.593Z,49.81
2022-12-15T11:58:50.479Z,53.57
2022-12-15T11:59:50.441Z,54.61
2022-12-15T12:00:50.459Z,53.04
2022-12-15T12:01:57.114Z,54.56
2022-12-15T12:02:52.443Z,54.89
2022-12-15T12:03:50.399Z,52.23
2022-12-15T12:04:50.853Z,54.39
2022-12-15T12:05:50.424Z,54.09
2022-12-15T12:06:50.477Z,56.39
2022-12-15T12:07:50.388Z,56.19
2022-12-15T12:08:51.187Z,56.85
2022-12-15T12:09:50.361Z,54.28
2022-12-15T12:10:50.457Z,55.77
2022-12-15T12:11:50.449Z,53.14
2022-12-15T12:12:50.638Z,54.38
2022-12-15T12:13:50.448Z,53.68
2022-12-15T12:14:50.778Z,54.44
2022-12-15T12:15:50.366Z,52.00
2022-12-15T12:16:50.384Z,54.05
2022-12-15T12:17:50.326Z,56.85
2022-12-15T12:18:50.369Z,54.69
2022-12-15T12:19:50.797Z,54.54
2022-12-15T12:20:50.403Z,51.91
2022-12-15T12:21:50.974Z,53.17
2022-12-15T12:22:50.651Z,53.38
2022-12-15T12:23:50.338Z,54.74
2022-12-15T12:25:51.283Z,52.94
2022-12-15T12:26:50.382Z,54.06
2022-12-15T12:27:50.530Z,52.45
2022-12-15T12:28:50.452Z,56.30
2022-12-15T12:29:50.256Z,51.46
2022-12-15T12:30:50.610Z,53.07
2022-12-15T12:31:50.738Z,52.58
2022-12-15T12:32:50.515Z,51.72
2022-12-15T12:33:50.233Z,51.33
2022-12-15T12:34:51.105Z,51.60
2022-12-15T12:35:50.232Z,53.28
2022-12-15T12:36:50.220Z,49.99
2022-12-15T12:37:50.233Z,53.43
2022-12-15T12:38:50.958Z,50.60
2022-12-15T12:39:50.187Z,50.87
2022-12-15T12:40:50.320Z,52.56
2022-12-15T12:41:50.175Z,55.73
2022-12-15T12:42:50.400Z,55.05
2022-12-15T12:43:50.568Z,51.88
2022-12-15T12:44:50.158Z,52.62
2022-12-15T12:45:50.403Z,54.59
2022-12-15T12:46:50.596Z,54.11
2022-12-15T12:47:50.177Z,53.51
2022-12-15T12:48:50.182Z,57.36
2022-12-15T12:49:50.419Z,53.75
2022-12-15T12:50:50.586Z,54.19
2022-12-15T12:51:50.130Z,54.08
2022-12-15T12:52:50.319Z,53.37
2022-12-15T12:53:50.317Z,53.28
2022-12-15T12:54:50.300Z,51.71
2022-12-15T12:55:50.094Z,52.21
2022-12-15T12:56:50.649Z,53.30